Wetterdaten: Woche 17.02.14 - 23.02.14 (KW8)
Datum Zeit Temp. A. Feuchte A. Luftdruck Regen Wind Richtung Sonnenschein ET UV Solar Taupunkt Windchill Windben
17.02.2014 00:00 3,7 C 92 % 1014,9 hPa 0,0 l/m 4,0 km/h (1 Bft) W-SW 0,00 h 0,000 mm 0,0 UV-I 0 W/m 2,5 C 3,6 C 6,8 km/h (2 Bft)
17.02.2014 01:00 3,2 C 92 % 1014,9 hPa 0,0 l/m 2,5 km/h (1 Bft) W-SW 0,00 h 0,000 mm 0,0 UV-I 0 W/m 2,0 C 3,2 C 4,3 km/h (1 Bft)
17.02.2014 02:00 2,2 C 92 % 1014,8 hPa 0,0 l/m 0,9 km/h (0 Bft) W-SW 0,00 h 0,000 mm 0,0 UV-I 0 W/m 1,0 C 2,2 C 2,0 km/h (1 Bft)
17.02.2014 03:00 1,0 C 93 % 1014,7 hPa 0,0 l/m 0,1 km/h (0 Bft) W-SW 0,00 h 0,000 mm 0,0 UV-I 0 W/m 0,0 C 1,0 C 0,5 km/h (0 Bft)
17.02.2014 04:00 -0,0 C 93 % 1014,9 hPa 0,0 l/m 0,3 km/h (0 Bft) W-SW 0,00 h 0,000 mm 0,0 UV-I 0 W/m -1,0 C -0,0 C 0,8 km/h (0 Bft)
17.02.2014 05:00 -0,9 C 95 % 1015,4 hPa 0,0 l/m 0,1 km/h (0 Bft) W-SW 0,00 h 0,000 mm 0,0 UV-I 0 W/m -1,7 C -0,9 C 0,4 km/h (0 Bft)
17.02.2014 06:00 -1,2 C 95 % 1015,6 hPa 0,0 l/m 0,3 km/h (0 Bft) W-SW 0,00 h 0,000 mm 0,0 UV-I 0 W/m -1,9 C -1,2 C 1,1 km/h (1 Bft)
17.02.2014 07:00 -1,4 C 95 % 1016,1 hPa 0,0 l/m 1,5 km/h (1 Bft) W-NW 0,00 h 0,000 mm 0,0 UV-I 15 W/m -2,1 C -1,4 C 2,7 km/h (1 Bft)
17.02.2014 08:00 -0,8 C 96 % 1016,6 hPa 0,0 l/m 0,2 km/h (0 Bft) W-NW 0,65 h 0,000 mm 0,0 UV-I 65 W/m -1,4 C -0,8 C 0,6 km/h (0 Bft)
17.02.2014 09:00 -0,1 C 97 % 1017,1 hPa 0,0 l/m 0,2 km/h (0 Bft) W-NW 0,88 h 0,025 mm 0,5 UV-I 103 W/m -0,6 C -0,1 C 0,6 km/h (0 Bft)
17.02.2014 10:00 1,2 C 97 % 1017,2 hPa 0,0 l/m 0,5 km/h (0 Bft) W-NW 1,00 h 0,025 mm 0,8 UV-I 186 W/m 0,8 C 1,2 C 1,4 km/h (1 Bft)
17.02.2014 11:00 4,3 C 90 % 1017,4 hPa 0,0 l/m 2,6 km/h (1 Bft) W-SW 1,00 h 0,076 mm 1,2 UV-I 290 W/m 2,9 C 4,3 C 4,6 km/h (1 Bft)
17.02.2014 12:00 6,8 C 77 % 1017,2 hPa 0,0 l/m 5,6 km/h (1 Bft) W-SW 1,00 h 0,103 mm 1,2 UV-I 231 W/m 3,0 C 6,4 C 8,8 km/h (2 Bft)
17.02.2014 13:00 7,2 C 69 % 1017,3 hPa 0,0 l/m 5,3 km/h (1 Bft) W-SW 1,00 h 0,102 mm 0,9 UV-I 139 W/m 2,0 C 6,9 C 8,2 km/h (2 Bft)
17.02.2014 14:00 7,4 C 69 % 1017,3 hPa 0,0 l/m 4,2 km/h (1 Bft) N-NW 1,00 h 0,076 mm 0,9 UV-I 242 W/m 2,2 C 7,3 C 6,6 km/h (2 Bft)
17.02.2014 15:00 8,9 C 58 % 1017,2 hPa 0,0 l/m 6,6 km/h (2 Bft) S 1,00 h 0,127 mm 0,6 UV-I 302 W/m 1,1 C 8,2 C 10,6 km/h (2 Bft)
17.02.2014 16:00 8,1 C 57 % 1017,3 hPa 0,0 l/m 5,5 km/h (1 Bft) W-SW 0,78 h 0,152 mm 0,0 UV-I 87 W/m 0,0 C 7,7 C 8,5 km/h (2 Bft)
17.02.2014 17:00 6,8 C 64 % 1017,8 hPa 0,0 l/m 0,7 km/h (0 Bft) W 0,00 h 0,076 mm 0,0 UV-I 13 W/m 0,5 C 6,8 C 1,5 km/h (1 Bft)
17.02.2014 18:00 4,3 C 75 % 1018,4 hPa 0,0 l/m 1,3 km/h (1 Bft) O-SO 0,00 h 0,000 mm 0,0 UV-I 0 W/m 0,3 C 4,3 C 2,6 km/h (1 Bft)
17.02.2014 19:00 2,7 C 82 % 1018,8 hPa 0,0 l/m 1,7 km/h (1 Bft) O 0,00 h 0,025 mm 0,0 UV-I 0 W/m -0,0 C 2,7 C 2,9 km/h (1 Bft)
17.02.2014 20:00 1,2 C 85 % 1019,2 hPa 0,0 l/m 0,0 km/h (0 Bft) O 0,00 h 0,000 mm 0,0 UV-I 0 W/m -1,0 C 1,2 C 0,2 km/h (0 Bft)
17.02.2014 21:00 -0,1 C 89 % 1019,8 hPa 0,0 l/m 0,1 km/h (0 Bft) O 0,00 h 0,000 mm 0,0 UV-I 0 W/m -1,7 C -0,1 C 0,3 km/h (0 Bft)
17.02.2014 22:00 -0,9 C 91 % 1020,0 hPa 0,0 l/m 0,1 km/h (0 Bft) O 0,00 h 0,000 mm 0,0 UV-I 0 W/m -2,2 C -0,9 C 0,3 km/h (0 Bft)
17.02.2014 23:00 -1,4 C 92 % 1020,0 hPa 0,0 l/m 0,0 km/h (0 Bft) N 0,00 h 0,000 mm 0,0 UV-I 0 W/m -2,6 C -1,4 C 0,0 km/h (0 Bft)
18.02.2014 00:00 -1,8 C 93 % 1020,3 hPa 0,0 l/m 0,2 km/h (0 Bft) N-NO 0,00 h 0,000 mm 0,0 UV-I 0 W/m -2,9 C -1,8 C 0,7 km/h (0 Bft)
18.02.2014 01:00 -2,2 C 93 % 1020,4 hPa 0,0 l/m 0,0 km/h (0 Bft) N 0,00 h 0,000 mm 0,0 UV-I 0 W/m -3,3 C -2,2 C 0,1 km/h (0 Bft)
18.02.2014 02:00 -2,6 C 93 % 1020,8 hPa 0,0 l/m 0,0 km/h (0 Bft) N 0,00 h 0,000 mm 0,0 UV-I 0 W/m -3,6 C -2,6 C 0,1 km/h (0 Bft)
18.02.2014 03:00 -2,9 C 93 % 1020,8 hPa 0,0 l/m 0,0 km/h (0 Bft) N 0,00 h 0,000 mm 0,0 UV-I 0 W/m -3,9 C -2,9 C 0,1 km/h (0 Bft)
18.02.2014 04:00 -3,3 C 93 % 1020,5 hPa 0,0 l/m 0,0 km/h (0 Bft) N 0,00 h 0,000 mm 0,0 UV-I 0 W/m -4,2 C -3,3 C 0,1 km/h (0 Bft)
18.02.2014 05:00 -3,3 C 94 % 1020,4 hPa 0,0 l/m 0,7 km/h (0 Bft) N-NO 0,00 h 0,000 mm 0,0 UV-I 0 W/m -4,2 C -3,3 C 1,5 km/h (1 Bft)
18.02.2014 06:00 -3,5 C 93 % 1020,2 hPa 0,0 l/m 0,3 km/h (0 Bft) O-NO 0,00 h 0,000 mm 0,0 UV-I 0 W/m -4,4 C -3,5 C 0,7 km/h (0 Bft)
18.02.2014 07:00 -3,6 C 94 % 1020,3 hPa 0,0 l/m 1,3 km/h (1 Bft) N-NO 0,00 h 0,000 mm 0,0 UV-I 21 W/m -4,5 C -3,6 C 2,1 km/h (1 Bft)
18.02.2014 08:00 -2,5 C 94 % 1020,4 hPa 0,0 l/m 0,7 km/h (0 Bft) N-NO 0,88 h 0,000 mm 0,0 UV-I 55 W/m -3,3 C -2,5 C 1,6 km/h (1 Bft)
18.02.2014 09:00 -1,5 C 94 % 1019,9 hPa 0,0 l/m 0,2 km/h (0 Bft) N-NO 1,00 h 0,025 mm 0,0 UV-I 63 W/m -2,4 C -1,5 C 0,7 km/h (0 Bft)
18.02.2014 10:00 -0,3 C 93 % 1019,8 hPa 0,0 l/m 0,6 km/h (0 Bft) N-NO 1,00 h 0,025 mm 0,6 UV-I 114 W/m -1,4 C -0,3 C 1,5 km/h (1 Bft)
18.02.2014 11:00 2,8 C 88 % 1019,2 hPa 0,0 l/m 2,9 km/h (1 Bft) SO 1,00 h 0,051 mm 0,9 UV-I 196 W/m 1,0 C 2,6 C 5,1 km/h (1 Bft)
18.02.2014 12:00 5,2 C 77 % 1018,1 hPa 0,0 l/m 4,0 km/h (1 Bft) O-SO 1,00 h 0,077 mm 1,0 UV-I 217 W/m 1,6 C 4,9 C 7,9 km/h (2 Bft)
18.02.2014 13:00 6,0 C 73 % 1017,2 hPa 0,0 l/m 3,7 km/h (1 Bft) O-SO 1,00 h 0,102 mm 1,0 UV-I 203 W/m 1,6 C 6,0 C 7,2 km/h (2 Bft)
18.02.2014 14:00 7,5 C 69 % 1016,4 hPa 0,0 l/m 3,8 km/h (1 Bft) O-NO 1,00 h 0,102 mm 1,0 UV-I 348 W/m 2,1 C 7,3 C 7,1 km/h (2 Bft)
18.02.2014 15:00 7,5 C 68 % 1015,9 hPa 0,0 l/m 5,2 km/h (1 Bft) SO 1,00 h 0,152 mm 0,6 UV-I 135 W/m 2,0 C 7,1 C 8,4 km/h (2 Bft)
18.02.2014 16:00 6,5 C 72 % 1015,9 hPa 0,0 l/m 4,4 km/h (1 Bft) SO 0,18 h 0,076 mm 0,0 UV-I 43 W/m 1,9 C 6,3 C 6,8 km/h (2 Bft)
18.02.2014 17:00 5,3 C 77 % 1015,6 hPa 0,0 l/m 2,1 km/h (1 Bft) O-SO 0,00 h 0,025 mm 0,0 UV-I 12 W/m 1,6 C 5,3 C 3,7 km/h (1 Bft)
18.02.2014 18:00 4,2 C 80 % 1015,6 hPa 0,0 l/m 1,3 km/h (1 Bft) O 0,00 h 0,000 mm 0,0 UV-I 0 W/m 1,1 C 4,2 C 2,5 km/h (1 Bft)
18.02.2014 19:00 3,1 C 85 % 1015,4 hPa 0,0 l/m 1,2 km/h (1 Bft) O 0,00 h 0,000 mm 0,0 UV-I 0 W/m 0,8 C 3,1 C 2,3 km/h (1 Bft)
18.02.2014 20:00 2,4 C 86 % 1015,5 hPa 0,0 l/m 0,2 km/h (0 Bft) O 0,00 h 0,000 mm 0,0 UV-I 0 W/m 0,3 C 2,4 C 0,5 km/h (0 Bft)
18.02.2014 21:00 1,4 C 88 % 1015,4 hPa 0,0 l/m 0,4 km/h (0 Bft) O 0,00 h 0,000 mm 0,0 UV-I 0 W/m -0,3 C 1,4 C 0,9 km/h (0 Bft)
18.02.2014 22:00 0,3 C 91 % 1015,2 hPa 0,0 l/m 0,7 km/h (0 Bft) O 0,00 h 0,000 mm 0,0 UV-I 0 W/m -0,9 C 0,3 C 1,6 km/h (1 Bft)
18.02.2014 23:00 0,1 C 92 % 1015,1 hPa 0,0 l/m 0,2 km/h (0 Bft) O-NO 0,00 h 0,000 mm 0,0 UV-I 0 W/m -1,0 C 0,1 C 0,6 km/h (0 Bft)
19.02.2014 00:00 -0,2 C 93 % 1015,0 hPa 0,0 l/m 0,1 km/h (0 Bft) O-NO 0,00 h 0,000 mm 0,0 UV-I 0 W/m -1,2 C -0,2 C 0,2 km/h (0 Bft)
19.02.2014 01:00 -0,2 C 93 % 1014,9 hPa 0,0 l/m 0,0 km/h (0 Bft) N 0,00 h 0,000 mm 0,0 UV-I 0 W/m -1,2 C -0,2 C 0,0 km/h (0 Bft)
19.02.2014 02:00 -0,2 C 93 % 1014,7 hPa 0,0 l/m 0,1 km/h (0 Bft) O 0,00 h 0,000 mm 0,0 UV-I 0 W/m -1,2 C -0,2 C 0,3 km/h (0 Bft)
19.02.2014 03:00 -0,2 C 94 % 1014,4 hPa 0,0 l/m 0,1 km/h (0 Bft) NO 0,00 h 0,000 mm 0,0 UV-I 0 W/m -1,0 C -0,2 C 0,5 km/h (0 Bft)
19.02.2014 04:00 -0,1 C 94 % 1014,3 hPa 0,0 l/m 0,1 km/h (0 Bft) NO 0,00 h 0,000 mm 0,0 UV-I 0 W/m -1,0 C -0,1 C 0,4 km/h (0 Bft)
19.02.2014 05:00 -0,2 C 94 % 1014,0 hPa 0,0 l/m 0,4 km/h (0 Bft) O 0,00 h 0,000 mm 0,0 UV-I 0 W/m -1,1 C -0,2 C 1,1 km/h (1 Bft)
19.02.2014 06:00 0,0 C 95 % 1014,3 hPa 0,0 l/m 0,4 km/h (0 Bft) O-SO 0,00 h 0,000 mm 0,0 UV-I 0 W/m -0,7 C 0,0 C 0,7 km/h (0 Bft)
19.02.2014 07:00 0,4 C 95 % 1014,7 hPa 0,0 l/m 0,5 km/h (0 Bft) O 0,00 h 0,000 mm 0,0 UV-I 11 W/m -0,2 C 0,4 C 1,0 km/h (0 Bft)
19.02.2014 08:00 1,7 C 96 % 1015,1 hPa 0,0 l/m 2,7 km/h (1 Bft) S-SW 0,00 h 0,000 mm 0,0 UV-I 28 W/m 1,1 C 1,7 C 4,5 km/h (1 Bft)
19.02.2014 09:00 3,1 C 93 % 1015,1 hPa 0,0 l/m 2,6 km/h (1 Bft) S 0,53 h 0,000 mm 0,0 UV-I 50 W/m 2,1 C 3,1 C 4,4 km/h (1 Bft)
19.02.2014 10:00 3,9 C 91 % 1015,0 hPa 0,0 l/m 4,6 km/h (1 Bft) SW 0,87 h 0,025 mm 0,5 UV-I 75 W/m 2,5 C 3,8 C 7,6 km/h (2 Bft)
19.02.2014 11:00 4,2 C 92 % 1015,2 hPa 0,0 l/m 6,3 km/h (2 Bft) SW 1,00 h 0,025 mm 0,6 UV-I 100 W/m 3,1 C 3,7 C 10,6 km/h (2 Bft)
19.02.2014 12:00 4,7 C 92 % 1015,1 hPa 0,0 l/m 6,3 km/h (2 Bft) SW 0,90 h 0,051 mm 0,5 UV-I 76 W/m 3,5 C 4,3 C 10,0 km/h (2 Bft)
19.02.2014 13:00 5,2 C 91 % 1014,8 hPa 0,0 l/m 7,0 km/h (2 Bft) W-SW 1,00 h 0,025 mm 0,6 UV-I 98 W/m 3,7 C 4,2 C 10,9 km/h (2 Bft)
19.02.2014 14:00 5,6 C 88 % 1014,6 hPa 0,0 l/m 4,8 km/h (1 Bft) W 0,50 h 0,051 mm 0,6 UV-I 56 W/m 3,8 C 5,3 C 7,8 km/h (2 Bft)
19.02.2014 15:00 5,7 C 87 % 1014,5 hPa 0,0 l/m 5,6 km/h (1 Bft) W-SW 0,47 h 0,025 mm 0,0 UV-I 45 W/m 3,7 C 5,5 C 8,4 km/h (2 Bft)
19.02.2014 16:00 5,8 C 87 % 1014,7 hPa 0,0 l/m 3,2 km/h (1 Bft) W-SW 0,00 h 0,025 mm 0,0 UV-I 25 W/m 3,7 C 5,8 C 5,6 km/h (1 Bft)
19.02.2014 17:00 5,5 C 88 % 1015,1 hPa 0,0 l/m 2,2 km/h (1 Bft) W-SW 0,00 h 0,025 mm 0,0 UV-I 6 W/m 3,7 C 5,5 C 4,3 km/h (1 Bft)
19.02.2014 18:00 5,2 C 90 % 1015,5 hPa 0,0 l/m 1,0 km/h (0 Bft) W 0,00 h 0,000 mm 0,0 UV-I 0 W/m 3,7 C 5,2 C 2,3 km/h (1 Bft)
19.02.2014 19:00 4,9 C 90 % 1015,8 hPa 0,0 l/m 0,7 km/h (0 Bft) S-SW 0,00 h 0,000 mm 0,0 UV-I 0 W/m 3,4 C 4,9 C 1,8 km/h (1 Bft)
19.02.2014 20:00 4,5 C 91 % 1016,0 hPa 0,0 l/m 1,6 km/h (1 Bft) S 0,00 h 0,000 mm 0,0 UV-I 0 W/m 3,1 C 4,5 C 2,9 km/h (1 Bft)
19.02.2014 21:00 3,6 C 91 % 1016,5 hPa 0,0 l/m 0,2 km/h (0 Bft) W-NW 0,00 h 0,000 mm 0,0 UV-I 0 W/m 2,4 C 3,6 C 0,5 km/h (0 Bft)
19.02.2014 22:00 2,6 C 93 % 1016,7 hPa 0,0 l/m 1,1 km/h (1 Bft) W-NW 0,00 h 0,000 mm 0,0 UV-I 0 W/m 1,6 C 2,6 C 2,2 km/h (1 Bft)
19.02.2014 23:00 2,3 C 94 % 1016,6 hPa 0,0 l/m 1,8 km/h (1 Bft) W-NW 0,00 h 0,000 mm 0,0 UV-I 0 W/m 1,5 C 2,3 C 3,4 km/h (1 Bft)
20.02.2014 00:00 2,1 C 95 % 1016,6 hPa 0,0 l/m 0,9 km/h (0 Bft) W-NW 0,00 h 0,000 mm 0,0 UV-I 0 W/m 1,4 C 2,1 C 1,9 km/h (1 Bft)
20.02.2014 01:00 1,8 C 95 % 1016,8 hPa 0,0 l/m 0,2 km/h (0 Bft) W-NW 0,00 h 0,000 mm 0,0 UV-I 0 W/m 1,1 C 1,8 C 0,7 km/h (0 Bft)
20.02.2014 02:00 2,3 C 96 % 1016,8 hPa 0,0 l/m 2,3 km/h (1 Bft) W-NW 0,00 h 0,000 mm 0,0 UV-I 0 W/m 1,7 C 2,3 C 3,8 km/h (1 Bft)
20.02.2014 03:00 3,2 C 95 % 1016,5 hPa 0,0 l/m 1,4 km/h (1 Bft) S-SW 0,00 h 0,000 mm 0,0 UV-I 0 W/m 2,6 C 3,2 C 2,9 km/h (1 Bft)
20.02.2014 04:00 3,5 C 95 % 1016,6 hPa 0,2 l/m 1,8 km/h (1 Bft) S-SW 0,00 h 0,000 mm 0,0 UV-I 0 W/m 2,8 C 3,5 C 3,2 km/h (1 Bft)
20.02.2014 05:00 3,6 C 95 % 1016,6 hPa 0,0 l/m 0,8 km/h (0 Bft) S-SO 0,00 h 0,000 mm 0,0 UV-I 0 W/m 2,9 C 3,6 C 1,9 km/h (1 Bft)
20.02.2014 06:00 3,7 C 95 % 1016,6 hPa 0,0 l/m 2,4 km/h (1 Bft) S-SW 0,00 h 0,000 mm 0,0 UV-I 0 W/m 3,0 C 3,7 C 4,3 km/h (1 Bft)
20.02.2014 07:00 3,8 C 95 % 1016,5 hPa 0,0 l/m 2,7 km/h (1 Bft) S 0,00 h 0,000 mm 0,0 UV-I 12 W/m 3,0 C 3,8 C 4,7 km/h (1 Bft)
20.02.2014 08:00 3,9 C 95 % 1016,5 hPa 0,0 l/m 4,8 km/h (1 Bft) S 0,00 h 0,000 mm 0,0 UV-I 31 W/m 3,2 C 3,7 C 7,2 km/h (2 Bft)
20.02.2014 09:00 4,1 C 93 % 1016,5 hPa 0,2 l/m 6,3 km/h (2 Bft) SW 0,62 h 0,025 mm 0,5 UV-I 58 W/m 3,1 C 3,3 C 9,7 km/h (2 Bft)
20.02.2014 10:00 4,7 C 91 % 1016,4 hPa 0,0 l/m 6,0 km/h (2 Bft) S-SW 1,00 h 0,025 mm 0,6 UV-I 123 W/m 3,4 C 4,2 C 9,3 km/h (2 Bft)
20.02.2014 11:00 5,6 C 87 % 1016,2 hPa 0,0 l/m 5,4 km/h (1 Bft) S 1,00 h 0,051 mm 1,1 UV-I 200 W/m 3,7 C 5,2 C 8,5 km/h (2 Bft)
20.02.2014 12:00 6,5 C 83 % 1015,4 hPa 0,0 l/m 5,1 km/h (1 Bft) S-SW 1,00 h 0,076 mm 1,3 UV-I 235 W/m 3,8 C 6,2 C 8,2 km/h (2 Bft)
20.02.2014 13:00 7,4 C 78 % 1014,6 hPa 0,0 l/m 6,2 km/h (2 Bft) S-SW 1,00 h 0,102 mm 1,2 UV-I 214 W/m 3,8 C 6,8 C 9,4 km/h (2 Bft)
20.02.2014 14:00 7,6 C 73 % 1013,9 hPa 0,0 l/m 6,0 km/h (2 Bft) S 1,00 h 0,102 mm 0,7 UV-I 134 W/m 3,1 C 7,2 C 8,9 km/h (2 Bft)
20.02.2014 15:00 7,5 C 74 % 1013,4 hPa 0,0 l/m 6,5 km/h (2 Bft) S-SO 0,97 h 0,076 mm 0,6 UV-I 78 W/m 3,2 C 7,1 C 9,5 km/h (2 Bft)
20.02.2014 16:00 7,5 C 74 % 1013,0 hPa 0,0 l/m 8,6 km/h (2 Bft) S 0,25 h 0,051 mm 0,0 UV-I 37 W/m 3,1 C 5,6 C 12,3 km/h (3 Bft)
20.02.2014 17:00 7,0 C 76 % 1012,6 hPa 0,0 l/m 6,4 km/h (2 Bft) S-SO 0,00 h 0,051 mm 0,0 UV-I 13 W/m 3,0 C 6,6 C 8,9 km/h (2 Bft)
20.02.2014 18:00 6,0 C 78 % 1012,4 hPa 0,0 l/m 5,1 km/h (1 Bft) SO 0,00 h 0,025 mm 0,0 UV-I 0 W/m 2,5 C 5,9 C 7,5 km/h (2 Bft)
20.02.2014 19:00 4,5 C 83 % 1012,3 hPa 0,0 l/m 3,7 km/h (1 Bft) SO 0,00 h 0,025 mm 0,0 UV-I 0 W/m 2,0 C 4,5 C 5,3 km/h (1 Bft)
20.02.2014 20:00 3,7 C 87 % 1012,1 hPa 0,0 l/m 3,1 km/h (1 Bft) S-SO 0,00 h 0,025 mm 0,0 UV-I 0 W/m 1,7 C 3,7 C 4,3 km/h (1 Bft)
20.02.2014 21:00 2,5 C 89 % 1011,9 hPa 0,0 l/m 0,1 km/h (0 Bft) W 0,00 h 0,000 mm 0,0 UV-I 0 W/m 0,9 C 2,5 C 0,9 km/h (0 Bft)
20.02.2014 22:00 2,2 C 93 % 1011,5 hPa 0,0 l/m 4,2 km/h (1 Bft) S 0,00 h 0,000 mm 0,0 UV-I 0 W/m 1,1 C 2,1 C 6,4 km/h (2 Bft)
20.02.2014 23:00 2,7 C 91 % 1011,2 hPa 0,0 l/m 1,8 km/h (1 Bft) W-SW 0,00 h 0,000 mm 0,0 UV-I 0 W/m 1,4 C 2,7 C 3,6 km/h (1 Bft)
21.02.2014 00:00 2,7 C 92 % 1010,7 hPa 0,0 l/m 3,3 km/h (1 Bft) S-SW 0,00 h 0,000 mm 0,0 UV-I 0 W/m 1,5 C 2,7 C 5,4 km/h (1 Bft)
21.02.2014 01:00 1,3 C 90 % 1010,3 hPa 0,0 l/m 0,6 km/h (0 Bft) S 0,00 h 0,000 mm 0,0 UV-I 0 W/m -0,2 C 1,3 C 1,6 km/h (1 Bft)
21.02.2014 02:00 0,8 C 93 % 1009,8 hPa 0,0 l/m 2,3 km/h (1 Bft) S 0,00 h 0,000 mm 0,0 UV-I 0 W/m -0,2 C 0,8 C 3,9 km/h (1 Bft)
21.02.2014 03:00 0,4 C 93 % 1009,5 hPa 0,0 l/m 1,4 km/h (1 Bft) N-NO 0,00 h 0,000 mm 0,0 UV-I 0 W/m -0,5 C 0,4 C 2,7 km/h (1 Bft)
21.02.2014 04:00 -0,5 C 93 % 1009,0 hPa 0,0 l/m 0,5 km/h (0 Bft) N-NO 0,00 h 0,000 mm 0,0 UV-I 0 W/m -1,4 C -0,5 C 1,2 km/h (1 Bft)
21.02.2014 05:00 -0,4 C 95 % 1009,1 hPa 0,0 l/m 1,4 km/h (1 Bft) N-NO 0,00 h 0,000 mm 0,0 UV-I 0 W/m -1,1 C -0,4 C 2,8 km/h (1 Bft)
21.02.2014 06:00 1,4 C 96 % 1009,0 hPa 0,4 l/m 4,5 km/h (1 Bft) S 0,00 h 0,000 mm 0,0 UV-I 0 W/m 0,9 C 1,0 C 7,5 km/h (2 Bft)
21.02.2014 07:00 2,8 C 95 % 1009,0 hPa 0,2 l/m 2,3 km/h (1 Bft) S 0,00 h 0,000 mm 0,0 UV-I 7 W/m 2,1 C 2,6 C 4,2 km/h (1 Bft)
21.02.2014 08:00 3,2 C 95 % 1009,2 hPa 0,0 l/m 3,9 km/h (1 Bft) S-SW 0,00 h 0,000 mm 0,0 UV-I 22 W/m 2,5 C 2,9 C 6,6 km/h (2 Bft)
21.02.2014 09:00 3,7 C 94 % 1009,4 hPa 0,0 l/m 5,2 km/h (1 Bft) W-SW 0,73 h 0,000 mm 0,0 UV-I 60 W/m 2,9 C 3,5 C 8,4 km/h (2 Bft)
21.02.2014 10:00 4,3 C 94 % 1009,5 hPa 0,0 l/m 6,5 km/h (2 Bft) W-SW 0,93 h 0,025 mm 0,7 UV-I 110 W/m 3,4 C 3,5 C 10,9 km/h (2 Bft)
21.02.2014 11:00 5,1 C 93 % 1009,8 hPa 0,0 l/m 4,9 km/h (1 Bft) SW 0,90 h 0,051 mm 0,6 UV-I 70 W/m 4,0 C 4,7 C 8,4 km/h (2 Bft)
21.02.2014 12:00 5,6 C 92 % 1009,4 hPa 0,0 l/m 8,1 km/h (2 Bft) SW 0,97 h 0,026 mm 0,7 UV-I 112 W/m 4,5 C 4,1 C 12,2 km/h (2 Bft)
21.02.2014 13:00 6,4 C 91 % 1009,0 hPa 0,0 l/m 8,4 km/h (2 Bft) S 1,00 h 0,051 mm 0,8 UV-I 117 W/m 5,0 C 4,7 C 12,8 km/h (3 Bft)
21.02.2014 14:00 6,2 C 93 % 1009,2 hPa 0,0 l/m 8,5 km/h (2 Bft) S 0,43 h 0,051 mm 0,6 UV-I 52 W/m 5,1 C 4,4 C 12,7 km/h (3 Bft)
21.02.2014 15:00 6,5 C 92 % 1009,4 hPa 0,0 l/m 7,2 km/h (2 Bft) S-SW 0,58 h 0,025 mm 0,5 UV-I 70 W/m 5,4 C 5,6 C 10,7 km/h (2 Bft)
21.02.2014 16:00 6,6 C 91 % 1009,9 hPa 0,0 l/m 7,0 km/h (2 Bft) S-SW 0,25 h 0,025 mm 0,0 UV-I 31 W/m 5,3 C 5,7 C 10,5 km/h (2 Bft)
21.02.2014 17:00 6,1 C 92 % 1010,4 hPa 1,0 l/m 9,0 km/h (2 Bft) SW 0,00 h 0,025 mm 0,0 UV-I 6 W/m 4,8 C 4,0 C 13,9 km/h (3 Bft)
21.02.2014 18:00 5,5 C 92 % 1011,1 hPa 0,2 l/m 5,6 km/h (1 Bft) SW 0,00 h 0,000 mm 0,0 UV-I 0 W/m 4,3 C 5,0 C 8,8 km/h (2 Bft)
21.02.2014 19:00 5,0 C 91 % 1011,7 hPa 0,0 l/m 5,7 km/h (1 Bft) SW 0,00 h 0,000 mm 0,0 UV-I 0 W/m 3,7 C 4,9 C 8,7 km/h (2 Bft)
21.02.2014 20:00 4,5 C 91 % 1012,0 hPa 0,0 l/m 5,0 km/h (1 Bft) SW 0,00 h 0,000 mm 0,0 UV-I 0 W/m 3,1 C 4,3 C 7,9 km/h (2 Bft)
21.02.2014 21:00 4,0 C 92 % 1012,5 hPa 0,0 l/m 2,8 km/h (1 Bft) SW 0,00 h 0,000 mm 0,0 UV-I 0 W/m 2,8 C 4,0 C 5,0 km/h (1 Bft)
21.02.2014 22:00 3,7 C 92 % 1012,8 hPa 0,0 l/m 4,4 km/h (1 Bft) SW 0,00 h 0,000 mm 0,0 UV-I 0 W/m 2,5 C 3,7 C 7,2 km/h (2 Bft)
21.02.2014 23:00 3,3 C 92 % 1013,3 hPa 0,0 l/m 2,3 km/h (1 Bft) S 0,00 h 0,000 mm 0,0 UV-I 0 W/m 2,1 C 3,3 C 4,5 km/h (1 Bft)
22.02.2014 00:00 2,5 C 93 % 1013,7 hPa 0,0 l/m 1,2 km/h (1 Bft) S-SW 0,00 h 0,000 mm 0,0 UV-I 0 W/m 1,4 C 2,5 C 2,4 km/h (1 Bft)
22.02.2014 01:00 2,1 C 93 % 1014,2 hPa 0,0 l/m 1,6 km/h (1 Bft) W-SW 0,00 h 0,000 mm 0,0 UV-I 0 W/m 1,1 C 2,1 C 3,1 km/h (1 Bft)
22.02.2014 02:00 2,2 C 93 % 1014,5 hPa 0,0 l/m 2,6 km/h (1 Bft) W-SW 0,00 h 0,000 mm 0,0 UV-I 0 W/m 1,2 C 2,2 C 5,1 km/h (1 Bft)
22.02.2014 03:00 2,6 C 91 % 1014,7 hPa 0,0 l/m 3,0 km/h (1 Bft) W-SW 0,00 h 0,000 mm 0,0 UV-I 0 W/m 1,3 C 2,6 C 5,3 km/h (1 Bft)
22.02.2014 04:00 2,5 C 91 % 1015,0 hPa 0,0 l/m 2,1 km/h (1 Bft) SW 0,00 h 0,000 mm 0,0 UV-I 0 W/m 1,2 C 2,5 C 4,1 km/h (1 Bft)
22.02.2014 05:00 1,8 C 92 % 1015,3 hPa 0,0 l/m 1,9 km/h (1 Bft) S-SW 0,00 h 0,000 mm 0,0 UV-I 0 W/m 0,7 C 1,8 C 3,4 km/h (1 Bft)
22.02.2014 06:00 1,4 C 94 % 1015,6 hPa 0,0 l/m 2,1 km/h (1 Bft) S 0,00 h 0,000 mm 0,0 UV-I 0 W/m 0,5 C 1,4 C 3,7 km/h (1 Bft)
22.02.2014 07:00 1,4 C 94 % 1016,0 hPa 0,0 l/m 3,0 km/h (1 Bft) SW 0,08 h 0,000 mm 0,0 UV-I 24 W/m 0,5 C 1,4 C 5,3 km/h (1 Bft)
22.02.2014 08:00 2,0 C 92 % 1016,5 hPa 0,0 l/m 2,9 km/h (1 Bft) S 1,00 h 0,000 mm 0,5 UV-I 138 W/m 0,9 C 2,0 C 5,0 km/h (1 Bft)
22.02.2014 09:00 3,6 C 87 % 1016,9 hPa 0,0 l/m 5,4 km/h (1 Bft) W-SW 1,00 h 0,051 mm 0,8 UV-I 266 W/m 1,6 C 3,3 C 8,6 km/h (2 Bft)
22.02.2014 10:00 5,0 C 79 % 1017,0 hPa 0,0 l/m 7,3 km/h (2 Bft) W-SW 1,00 h 0,102 mm 1,3 UV-I 342 W/m 1,7 C 3,9 C 11,1 km/h (2 Bft)
22.02.2014 11:00 5,8 C 72 % 1017,1 hPa 0,0 l/m 8,5 km/h (2 Bft) W-SW 1,00 h 0,152 mm 1,4 UV-I 251 W/m 1,2 C 4,0 C 13,4 km/h (3 Bft)
22.02.2014 12:00 6,9 C 55 % 1016,7 hPa 0,0 l/m 10,7 km/h (2 Bft) W-SW 1,00 h 0,127 mm 1,4 UV-I 217 W/m -1,6 C 3,9 C 16,3 km/h (3 Bft)
22.02.2014 13:00 6,6 C 56 % 1016,6 hPa 0,0 l/m 9,0 km/h (2 Bft) W-SW 1,00 h 0,152 mm 0,9 UV-I 137 W/m -1,6 C 4,6 C 13,8 km/h (3 Bft)
22.02.2014 14:00 6,9 C 58 % 1016,6 hPa 0,0 l/m 4,9 km/h (1 Bft) W-NW 1,00 h 0,102 mm 0,6 UV-I 106 W/m -0,9 C 6,6 C 7,7 km/h (2 Bft)
22.02.2014 15:00 6,8 C 57 % 1017,1 hPa 0,0 l/m 9,4 km/h (2 Bft) W-SW 1,00 h 0,076 mm 0,6 UV-I 117 W/m -1,0 C 4,6 C 14,5 km/h (3 Bft)
22.02.2014 16:00 6,6 C 60 % 1017,3 hPa 0,0 l/m 5,2 km/h (1 Bft) SW 0,57 h 0,102 mm 0,0 UV-I 58 W/m -0,5 C 6,2 C 8,3 km/h (2 Bft)
22.02.2014 17:00 6,0 C 61 % 1017,6 hPa 0,0 l/m 5,0 km/h (1 Bft) W 0,00 h 0,051 mm 0,0 UV-I 14 W/m -1,1 C 5,7 C 7,9 km/h (2 Bft)
22.02.2014 18:00 4,7 C 66 % 1018,4 hPa 0,0 l/m 1,2 km/h (1 Bft) SW 0,00 h 0,025 mm 0,0 UV-I 0 W/m -1,1 C 4,7 C 2,7 km/h (1 Bft)
22.02.2014 19:00 3,0 C 75 % 1019,1 hPa 0,0 l/m 1,2 km/h (1 Bft) O-SO 0,00 h 0,025 mm 0,0 UV-I 0 W/m -1,1 C 3,0 C 2,4 km/h (1 Bft)
22.02.2014 20:00 1,6 C 81 % 1019,5 hPa 0,0 l/m 0,5 km/h (0 Bft) O 0,00 h 0,025 mm 0,0 UV-I 0 W/m -1,2 C 1,6 C 1,3 km/h (1 Bft)
22.02.2014 21:00 0,4 C 85 % 1020,1 hPa 0,0 l/m 0,2 km/h (0 Bft) O-NO 0,00 h 0,000 mm 0,0 UV-I 0 W/m -1,8 C 0,4 C 0,4 km/h (0 Bft)
22.02.2014 22:00 -0,5 C 89 % 1020,7 hPa 0,0 l/m 0,5 km/h (0 Bft) O-NO 0,00 h 0,000 mm 0,0 UV-I 0 W/m -2,1 C -0,5 C 1,1 km/h (1 Bft)
22.02.2014 23:00 -0,9 C 90 % 1021,4 hPa 0,0 l/m 0,2 km/h (0 Bft) S-SO 0,00 h 0,000 mm 0,0 UV-I 0 W/m -2,3 C -0,9 C 0,5 km/h (0 Bft)
23.02.2014 00:00 -1,0 C 91 % 1022,0 hPa 0,0 l/m 0,0 km/h (0 Bft) N 0,00 h 0,000 mm 0,0 UV-I 0 W/m -2,2 C -1,0 C 0,0 km/h (0 Bft)
23.02.2014 01:00 -0,7 C 92 % 1022,4 hPa 0,0 l/m 0,0 km/h (0 Bft) N 0,00 h 0,000 mm 0,0 UV-I 0 W/m -1,8 C -0,7 C 0,0 km/h (0 Bft)
23.02.2014 02:00 -0,6 C 92 % 1022,8 hPa 0,0 l/m 0,0 km/h (0 Bft) N 0,00 h 0,000 mm 0,0 UV-I 0 W/m -1,7 C -0,6 C 0,0 km/h (0 Bft)
23.02.2014 03:00 -0,6 C 92 % 1022,9 hPa 0,0 l/m 0,2 km/h (0 Bft) SO 0,00 h 0,000 mm 0,0 UV-I 0 W/m -1,7 C -0,6 C 0,6 km/h (0 Bft)
23.02.2014 04:00 -0,7 C 93 % 1023,2 hPa 0,0 l/m 0,3 km/h (0 Bft) W-SW 0,00 h 0,000 mm 0,0 UV-I 0 W/m -1,7 C -0,7 C 1,0 km/h (0 Bft)
23.02.2014 05:00 -0,6 C 93 % 1023,8 hPa 0,0 l/m 0,1 km/h (0 Bft) NW 0,00 h 0,000 mm 0,0 UV-I 0 W/m -1,6 C -0,6 C 0,2 km/h (0 Bft)
23.02.2014 06:00 -0,5 C 93 % 1024,3 hPa 0,0 l/m 0,0 km/h (0 Bft) N 0,00 h 0,000 mm 0,0 UV-I 0 W/m -1,5 C -0,5 C 0,1 km/h (0 Bft)
23.02.2014 07:00 -0,8 C 93 % 1024,9 hPa 0,0 l/m 0,0 km/h (0 Bft) N 0,00 h 0,000 mm 0,0 UV-I 15 W/m -1,8 C -0,8 C 0,0 km/h (0 Bft)
23.02.2014 08:00 -0,2 C 93 % 1025,6 hPa 0,0 l/m 0,1 km/h (0 Bft) NW 0,82 h 0,000 mm 0,5 UV-I 138 W/m -1,1 C -0,2 C 0,3 km/h (0 Bft)
23.02.2014 09:00 3,2 C 86 % 1025,6 hPa 0,0 l/m 0,8 km/h (0 Bft) NW 1,00 h 0,051 mm 0,9 UV-I 294 W/m 1,1 C 3,2 C 2,4 km/h (1 Bft)
23.02.2014 10:00 5,3 C 79 % 1025,5 hPa 0,0 l/m 1,8 km/h (1 Bft) NW 1,00 h 0,102 mm 1,3 UV-I 318 W/m 1,9 C 5,3 C 3,5 km/h (1 Bft)
23.02.2014 11:00 6,7 C 70 % 1025,5 hPa 0,0 l/m 3,8 km/h (1 Bft) W-SW 1,00 h 0,127 mm 1,7 UV-I 363 W/m 1,7 C 6,5 C 6,5 km/h (2 Bft)
23.02.2014 12:00 7,6 C 63 % 1025,1 hPa 0,0 l/m 6,9 km/h (2 Bft) W-SW 1,00 h 0,152 mm 1,7 UV-I 204 W/m 0,9 C 6,7 C 11,1 km/h (2 Bft)
23.02.2014 13:00 8,1 C 62 % 1024,6 hPa 0,0 l/m 6,1 km/h (2 Bft) W-SW 1,00 h 0,102 mm 1,7 UV-I 305 W/m 1,3 C 7,7 C 9,7 km/h (2 Bft)
23.02.2014 14:00 8,1 C 61 % 1024,2 hPa 0,0 l/m 7,6 km/h (2 Bft) S 1,00 h 0,152 mm 1,2 UV-I 253 W/m 1,1 C 6,8 C 11,7 km/h (2 Bft)
23.02.2014 15:00 8,3 C 62 % 1023,8 hPa 0,0 l/m 9,1 km/h (2 Bft) S 1,00 h 0,127 mm 0,8 UV-I 285 W/m 1,4 C 6,3 C 13,5 km/h (3 Bft)
23.02.2014 16:00 7,4 C 65 % 1023,8 hPa 0,0 l/m 8,2 km/h (2 Bft) S 0,87 h 0,152 mm 0,5 UV-I 107 W/m 1,1 C 5,9 C 11,7 km/h (2 Bft)
23.02.2014 17:00 6,2 C 70 % 1023,9 hPa 0,0 l/m 5,3 km/h (1 Bft) S 0,00 h 0,076 mm 0,0 UV-I 20 W/m 1,1 C 5,9 C 8,0 km/h (2 Bft)
23.02.2014 18:00 4,5 C 76 % 1024,4 hPa 0,0 l/m 1,7 km/h (1 Bft) S 0,00 h 0,025 mm 0,0 UV-I 0 W/m 0,6 C 4,5 C 3,0 km/h (1 Bft)
23.02.2014 19:00 2,5 C 82 % 1024,8 hPa 0,0 l/m 0,6 km/h (0 Bft) O 0,00 h 0,025 mm 0,0 UV-I 0 W/m -0,2 C 2,5 C 1,4 km/h (1 Bft)
23.02.2014 20:00 0,7 C 88 % 1024,7 hPa 0,0 l/m 0,6 km/h (0 Bft) O 0,00 h 0,000 mm 0,0 UV-I 0 W/m -1,0 C 0,7 C 1,6 km/h (1 Bft)
23.02.2014 21:00 -0,4 C 90 % 1024,7 hPa 0,0 l/m 0,1 km/h (0 Bft) O 0,00 h 0,000 mm 0,0 UV-I 0 W/m -1,8 C -0,4 C 0,7 km/h (0 Bft)
23.02.2014 22:00 -1,0 C 91 % 1024,7 hPa 0,0 l/m 0,0 km/h (0 Bft) N 0,00 h 0,000 mm 0,0 UV-I 0 W/m -2,3 C -1,0 C 0,2 km/h (0 Bft)
23.02.2014 23:00 -1,7 C 91 % 1024,6 hPa 0,0 l/m 0,0 km/h (0 Bft) O-NO 0,00 h 0,000 mm 0,0 UV-I 0 W/m -2,9 C -1,7 C 0,2 km/h (0 Bft)
Min-Datum _ 18.02.14 22.02.14 21.02.14 - 17.02.14 - - - - - 18.02.14 18.02.14 17.02.14
_ Min-Zeit 06:54 12:35 07:00 - 00:11 - - - - - 07:10 07:09 02:00
Minimum _ -3,7 C 47 % 1008,8 hPa - 0,0 km/h (0 Bft) - - - - - -4,7 C -3,7 C 0,0 km/h (0 Bft)
Max-Datum _ 17.02.14 17.02.14 23.02.14 21.02.14 22.02.14 - 17.02.14 17.02.14 23.02.14 17.02.14 21.02.14 17.02.14 22.02.14
_ Max-Zeit 15:31 09:12 08:42 17:39 15:07 - 12:45 16:00 11:52 12:14 15:20 15:31 15:07
Maximum _ 9,4 C 97 % 1025,7 hPa 1,0 l/m 22,5 km/h
W-SW (4 Bft)
- 0,07 h 0,152 mm 2,2 UV-I 640 W/m 5,6 C 9,4 C 29,0 km/h
W-SW (5 Bft)
Durchschnitt _ 2,9 C 86 % 1016,6 hPa #2,2 l/m 2,8 km/h (1 Bft) W-SW #51:37 h #4,668 mm 0,9 UV-I 122 W/m 0,7 C 2,7 C 4,7 km/h (1 Bft)